createdAt,value
2022-11-05T00:02:44.408Z,2.90
2022-11-05T00:05:34.674Z,2.93
2022-11-05T00:08:24.972Z,3.20
2022-11-05T00:10:56.688Z,3.03
2022-11-05T00:13:46.775Z,3.33
2022-11-05T00:16:41.445Z,3.47
2022-11-05T00:19:13.651Z,2.97
2022-11-05T00:22:03.907Z,3.27
2022-11-05T00:24:53.750Z,3.43
2022-11-05T00:27:25.439Z,3.23
2022-11-05T00:29:56.991Z,3.00
2022-11-05T00:32:28.665Z,3.97
2022-11-05T00:35:00.199Z,2.90
2022-11-05T00:37:31.951Z,3.47
2022-11-05T00:40:04.552Z,3.10
2022-11-05T00:42:54.913Z,4.07
2022-11-05T00:45:26.855Z,3.27
2022-11-05T00:48:17.365Z,3.10
2022-11-05T00:50:48.854Z,3.10
2022-11-05T00:53:20.697Z,3.83
2022-11-05T00:55:53.461Z,3.67
2022-11-05T00:58:25.016Z,3.57
2022-11-05T01:00:58.856Z,3.77
2022-11-05T01:03:36.260Z,4.00
2022-11-05T01:06:15.790Z,3.50
2022-11-05T01:08:47.490Z,3.37
2022-11-05T01:11:35.104Z,3.90
2022-11-05T01:14:10.040Z,3.13
2022-11-05T01:16:42.362Z,3.77
2022-11-05T01:19:13.976Z,4.10
2022-11-05T01:21:45.388Z,4.60
2022-11-05T01:24:16.851Z,3.70
2022-11-05T01:26:48.306Z,3.83
2022-11-05T01:29:19.894Z,3.77
2022-11-05T01:31:51.294Z,3.23
2022-11-05T01:34:23.025Z,3.13
2022-11-05T01:36:54.307Z,2.87
2022-11-05T01:39:25.916Z,3.37
2022-11-05T01:41:58.748Z,3.20
2022-11-05T01:44:58.421Z,3.30
2022-11-05T01:47:48.550Z,3.87
2022-11-05T01:50:22.928Z,3.67
2022-11-05T01:53:17.880Z,4.20
2022-11-05T01:56:02.140Z,3.53
2022-11-05T01:58:39.645Z,4.60
2022-11-05T02:01:12.250Z,3.90
2022-11-05T02:03:45.552Z,5.00
2022-11-05T02:06:18.034Z,5.10
2022-11-05T02:09:02.165Z,4.87
2022-11-05T02:11:34.192Z,5.03
2022-11-05T02:14:05.694Z,4.83
2022-11-05T02:17:04.111Z,4.30
2022-11-05T02:20:06.456Z,4.63
2022-11-05T02:22:51.683Z,5.40
2022-11-05T02:25:54.109Z,5.37
2022-11-05T02:28:57.467Z,6.37
2022-11-05T02:31:52.413Z,6.23
2022-11-05T02:34:57.661Z,6.83
2022-11-05T02:37:39.393Z,7.10
2022-11-05T02:40:17.353Z,6.13
2022-11-05T02:43:15.136Z,5.83
2022-11-05T02:46:01.910Z,7.60
2022-11-05T02:48:49.308Z,7.43
2022-11-05T02:51:29.684Z,6.97
2022-11-05T02:54:35.094Z,5.60
2022-11-05T02:57:06.875Z,6.10
2022-11-05T02:59:38.139Z,6.10
2022-11-05T03:02:09.691Z,7.50
2022-11-05T03:04:41.337Z,6.93
2022-11-05T03:07:37.925Z,6.53
2022-11-05T03:10:14.266Z,7.03
2022-11-05T03:15:54.821Z,6.07
2022-11-05T03:18:26.554Z,6.57
2022-11-05T03:21:11.472Z,6.10
2022-11-05T03:23:55.095Z,6.13
2022-11-05T03:26:31.062Z,6.57
2022-11-05T03:29:08.473Z,5.25
2022-11-05T03:31:41.629Z,6.00
2022-11-05T03:34:16.565Z,6.93
2022-11-05T03:36:53.512Z,5.93
2022-11-05T03:39:32.150Z,5.73
2022-11-05T03:42:06.276Z,6.73
2022-11-05T03:44:41.639Z,6.80
2022-11-05T03:47:22.157Z,7.17
2022-11-05T03:50:07.618Z,6.33
2022-11-05T03:52:48.547Z,6.60
2022-11-05T03:55:27.771Z,5.93
2022-11-05T03:57:59.447Z,5.90
2022-11-05T04:00:30.979Z,5.60
2022-11-05T04:03:02.372Z,5.83
2022-11-05T04:05:33.807Z,6.40
2022-11-05T04:08:23.800Z,7.93
2022-11-05T04:11:13.647Z,6.50
2022-11-05T04:13:44.980Z,6.10
2022-11-05T04:16:34.830Z,6.50
2022-11-05T04:19:06.560Z,6.23
2022-11-05T04:21:56.567Z,5.90
2022-11-05T04:24:27.861Z,6.93
2022-11-05T04:26:59.254Z,8.13
2022-11-05T04:29:49.066Z,8.23
2022-11-05T04:32:20.364Z,6.63
2022-11-05T04:34:51.628Z,6.37
2022-11-05T04:37:22.987Z,6.50
2022-11-05T04:39:54.247Z,6.47
2022-11-05T04:42:25.545Z,6.10
2022-11-05T04:44:56.869Z,6.73
2022-11-05T04:47:28.211Z,6.70
2022-11-05T04:49:59.569Z,6.07
2022-11-05T04:52:30.836Z,6.30
2022-11-05T04:55:02.127Z,7.43
2022-11-05T04:57:33.592Z,6.70
2022-11-05T05:00:07.466Z,6.50
2022-11-05T05:02:38.767Z,7.37
2022-11-05T05:05:10.341Z,7.17
2022-11-05T05:07:42.242Z,5.87
2022-11-05T05:10:13.641Z,6.23
2022-11-05T05:12:44.962Z,5.97
2022-11-05T05:15:16.289Z,6.17
2022-11-05T05:17:51.835Z,6.63
2022-11-05T05:20:41.636Z,6.35
2022-11-05T05:23:13.242Z,5.67
2022-11-05T05:25:44.727Z,5.70
2022-11-05T05:28:15.999Z,6.73
2022-11-05T05:30:47.249Z,5.60
2022-11-05T05:33:18.544Z,5.77
2022-11-05T05:35:49.804Z,5.30
2022-11-05T05:38:21.090Z,5.47
2022-11-05T05:40:52.492Z,5.47
2022-11-05T05:43:23.787Z,5.77
2022-11-05T05:45:57.180Z,5.50
2022-11-05T05:48:28.603Z,4.97
2022-11-05T05:51:04.916Z,5.63
2022-11-05T05:53:36.606Z,5.20
2022-11-05T05:56:08.188Z,5.37
2022-11-05T05:58:39.489Z,4.63
2022-11-05T06:01:18.661Z,5.37
2022-11-05T06:03:50.758Z,5.23
2022-11-05T06:06:22.611Z,6.30
2022-11-05T06:08:56.047Z,5.93
2022-11-05T06:11:27.671Z,5.73
2022-11-05T06:13:58.966Z,4.83
2022-11-05T06:16:35.400Z,5.87
2022-11-05T06:21:38.769Z,5.17
2022-11-05T06:24:10.363Z,5.40
2022-11-05T06:26:43.178Z,5.13
2022-11-05T06:29:14.450Z,5.33
2022-11-05T06:31:45.751Z,4.63
2022-11-05T06:34:17.029Z,5.27
2022-11-05T06:36:48.366Z,5.13
2022-11-05T06:39:19.693Z,6.07
2022-11-05T06:42:16.619Z,4.77
2022-11-05T06:44:42.298Z,4.50
2022-11-05T06:47:13.594Z,5.73
2022-11-05T06:49:45.904Z,5.37
2022-11-05T06:52:17.900Z,5.73
2022-11-05T06:54:49.593Z,6.73
2022-11-05T06:57:20.868Z,6.03
2022-11-05T06:59:57.092Z,5.97
2022-11-05T07:02:31.408Z,5.30
2022-11-05T07:05:02.765Z,6.40
2022-11-05T07:07:34.087Z,5.50
2022-11-05T07:10:07.947Z,6.77
2022-11-05T07:12:39.236Z,5.37
2022-11-05T07:15:12.288Z,5.20
2022-11-05T07:17:43.544Z,5.43
2022-11-05T07:20:14.926Z,5.93
2022-11-05T07:22:46.179Z,9.93
2022-11-05T07:25:17.600Z,11.10
2022-11-05T07:27:48.878Z,16.27
2022-11-05T07:30:20.152Z,12.57
2022-11-05T07:32:51.843Z,11.23
2022-11-05T07:35:23.843Z,8.53
2022-11-05T07:37:55.639Z,7.53
2022-11-05T07:40:29.182Z,7.83
2022-11-05T07:43:01.775Z,6.60
2022-11-05T07:45:33.058Z,7.47
2022-11-05T07:48:04.926Z,7.00
2022-11-05T07:50:37.601Z,6.90
2022-11-05T07:53:14.479Z,6.70
2022-11-05T07:55:46.128Z,6.30
2022-11-05T07:58:17.389Z,6.20
2022-11-05T08:00:48.825Z,6.27
2022-11-05T08:03:20.757Z,6.10
2022-11-05T08:05:52.349Z,6.97
2022-11-05T08:08:23.654Z,6.37
2022-11-05T08:11:02.837Z,6.27
2022-11-05T08:13:34.437Z,6.60
2022-11-05T08:16:06.039Z,7.37
2022-11-05T08:18:37.515Z,6.60
2022-11-05T08:21:09.498Z,6.77
2022-11-05T08:23:42.563Z,6.33
2022-11-05T08:26:13.877Z,7.20
2022-11-05T08:28:45.243Z,6.33
2022-11-05T08:31:18.033Z,6.43
2022-11-05T08:33:49.413Z,6.40
2022-11-05T08:36:20.700Z,6.27
2022-11-05T08:38:52.051Z,6.53
2022-11-05T08:41:23.405Z,6.57
2022-11-05T08:43:56.171Z,6.53
2022-11-05T08:46:27.532Z,5.97
2022-11-05T08:48:58.780Z,6.60
2022-11-05T08:51:30.765Z,6.83
2022-11-05T08:54:02.124Z,5.30
2022-11-05T08:56:33.376Z,5.60
2022-11-05T08:59:04.638Z,5.30
2022-11-05T09:01:36.185Z,4.97
2022-11-05T09:04:08.091Z,5.23
2022-11-05T09:06:39.379Z,4.90
2022-11-05T09:09:10.806Z,4.77
2022-11-05T09:12:10.136Z,4.67
2022-11-05T09:14:33.474Z,4.30
2022-11-05T09:17:05.481Z,3.77
2022-11-05T09:19:39.955Z,4.63
2022-11-05T09:22:12.839Z,4.30
2022-11-05T09:24:44.225Z,4.57
2022-11-05T09:27:15.639Z,3.73
2022-11-05T09:29:46.907Z,4.03
2022-11-05T09:32:19.274Z,4.47
2022-11-05T09:34:50.622Z,4.47
2022-11-05T09:37:22.035Z,3.53
2022-11-05T09:39:53.637Z,3.23
2022-11-05T09:42:37.783Z,3.33
2022-11-05T09:45:18.964Z,4.03
2022-11-05T09:47:57.577Z,3.10
2022-11-05T09:50:50.186Z,3.30
2022-11-05T09:53:23.805Z,3.43
2022-11-05T09:55:57.644Z,2.93
2022-11-05T09:58:39.232Z,2.70
2022-11-05T10:01:15.888Z,2.97
2022-11-05T10:03:50.733Z,3.07
2022-11-05T10:06:24.936Z,2.90
2022-11-05T10:09:26.541Z,3.07
2022-11-05T10:12:07.507Z,3.00
2022-11-05T10:14:45.571Z,3.37
2022-11-05T10:17:22.396Z,2.47
2022-11-05T10:20:02.451Z,2.30
2022-11-05T10:22:33.776Z,2.73
2022-11-05T10:25:17.268Z,2.00
2022-11-05T10:27:54.638Z,1.90
2022-11-05T10:30:26.230Z,2.20
2022-11-05T10:33:02.358Z,2.20
2022-11-05T10:35:41.148Z,2.03
2022-11-05T10:38:17.549Z,2.40
2022-11-05T10:41:34.527Z,1.90
2022-11-05T10:44:26.480Z,2.00
2022-11-05T10:47:27.633Z,2.03
2022-11-05T10:50:12.991Z,1.50
2022-11-05T10:53:02.584Z,1.60
2022-11-05T10:55:54.259Z,1.73
2022-11-05T10:58:31.610Z,1.77
2022-11-05T11:01:10.519Z,1.97
2022-11-05T11:03:49.081Z,1.87
2022-11-05T11:06:25.990Z,2.10
2022-11-05T11:09:01.701Z,1.80
2022-11-05T11:11:36.040Z,1.45
2022-11-05T11:14:13.442Z,1.50
2022-11-05T11:16:47.295Z,1.30
2022-11-05T11:19:30.263Z,1.90
2022-11-05T11:22:04.524Z,1.37
2022-11-05T11:24:44.071Z,1.60
2022-11-05T11:27:28.462Z,2.07
2022-11-05T11:30:05.298Z,1.50
2022-11-05T11:32:39.419Z,1.80
2022-11-05T11:35:24.891Z,1.30
2022-11-05T11:37:57.771Z,1.40
2022-11-05T11:40:36.368Z,1.47
2022-11-05T11:43:29.319Z,1.80
2022-11-05T11:46:06.069Z,1.53
2022-11-05T11:48:40.928Z,1.60
2022-11-05T11:51:32.163Z,1.47
2022-11-05T11:54:04.840Z,1.70
2022-11-05T11:56:44.671Z,1.57
2022-11-05T11:59:53.752Z,2.07
2022-11-05T12:02:38.545Z,1.97
2022-11-05T12:05:41.705Z,1.73
2022-11-05T12:08:30.420Z,1.37
2022-11-05T12:11:18.477Z,1.83
2022-11-05T12:14:00.554Z,1.43
2022-11-05T12:16:56.829Z,2.17
2022-11-05T12:19:49.989Z,1.77
2022-11-05T12:22:46.208Z,1.90
2022-11-05T12:26:03.779Z,1.58
2022-11-05T12:29:12.319Z,2.03
2022-11-05T12:32:17.242Z,4.63
2022-11-05T12:35:06.640Z,1.77
2022-11-05T12:37:56.791Z,1.67
2022-11-05T12:40:36.711Z,1.40
2022-11-05T12:43:34.076Z,1.67
2022-11-05T12:46:18.167Z,1.70
2022-11-05T12:48:58.599Z,1.43
2022-11-05T12:51:42.028Z,1.77
2022-11-05T12:54:34.663Z,1.87
2022-11-05T12:57:12.273Z,1.60
2022-11-05T12:59:54.299Z,1.60
2022-11-05T13:02:37.666Z,1.60
2022-11-05T13:05:36.414Z,1.80
2022-11-05T13:08:16.208Z,1.93
2022-11-05T13:10:55.813Z,2.10
2022-11-05T13:13:41.258Z,2.27
2022-11-05T13:16:18.335Z,2.07
2022-11-05T13:18:54.380Z,2.13
2022-11-05T13:21:37.727Z,2.00
2022-11-05T13:24:25.558Z,2.67
2022-11-05T13:27:15.759Z,1.93
2022-11-05T13:29:59.507Z,2.27
2022-11-05T13:32:35.536Z,2.40
2022-11-05T13:35:15.895Z,2.22
2022-11-05T13:38:12.930Z,2.77
2022-11-05T13:41:09.553Z,2.35
2022-11-05T13:43:55.941Z,2.20
2022-11-05T13:46:55.017Z,2.10
2022-11-05T13:50:00.817Z,2.10
2022-11-05T13:52:57.352Z,2.10
2022-11-05T13:55:47.524Z,2.25
2022-11-05T13:58:41.855Z,2.80
2022-11-05T14:01:29.990Z,2.37
2022-11-05T14:04:02.919Z,2.17
2022-11-05T14:06:36.294Z,2.60
2022-11-05T14:09:11.748Z,2.73
2022-11-05T14:11:50.792Z,2.70
2022-11-05T14:14:30.430Z,2.67
2022-11-05T14:17:07.987Z,2.20
2022-11-05T14:20:22.468Z,2.73
2022-11-05T14:22:53.811Z,2.57
2022-11-05T14:25:25.215Z,2.33
2022-11-05T14:27:57.981Z,2.53
2022-11-05T14:30:46.899Z,3.00
2022-11-05T14:33:33.062Z,2.70
2022-11-05T14:36:30.375Z,2.22
2022-11-05T14:39:18.828Z,2.10
2022-11-05T14:42:00.244Z,2.70
2022-11-05T14:44:34.915Z,2.50
2022-11-05T14:47:19.955Z,2.37
2022-11-05T14:50:03.420Z,2.60
2022-11-05T14:52:36.944Z,2.53
2022-11-05T14:55:26.227Z,3.50
2022-11-05T14:57:57.441Z,2.80
2022-11-05T15:00:28.751Z,2.77
2022-11-05T15:03:02.971Z,2.70
2022-11-05T15:05:48.592Z,3.27
2022-11-05T15:08:34.698Z,3.30
2022-11-05T15:11:35.502Z,2.85
2022-11-05T15:14:30.153Z,2.73
2022-11-05T15:17:33.062Z,2.67
2022-11-05T15:20:18.715Z,2.30
2022-11-05T15:22:56.591Z,2.77
2022-11-05T15:26:03.443Z,2.77
2022-11-05T15:28:47.851Z,2.80
2022-11-05T15:31:29.045Z,2.20
2022-11-05T15:34:19.109Z,3.83
2022-11-05T15:36:54.840Z,7.27
2022-11-05T15:39:46.412Z,6.32
2022-11-05T15:42:27.975Z,8.37
2022-11-05T15:45:00.009Z,8.40
2022-11-05T15:47:34.541Z,17.17
2022-11-05T15:50:15.270Z,14.40
2022-11-05T15:52:52.332Z,14.73
2022-11-05T15:55:26.109Z,13.07
2022-11-05T15:58:00.775Z,8.23
2022-11-05T16:00:36.371Z,6.97
2022-11-05T16:03:22.840Z,7.05
2022-11-05T16:05:54.721Z,9.80
2022-11-05T16:08:28.083Z,6.63
2022-11-05T16:11:00.638Z,6.27
2022-11-05T16:13:35.801Z,4.80
2022-11-05T16:16:24.219Z,4.00
2022-11-05T16:18:55.601Z,4.10
2022-11-05T16:21:26.872Z,4.73
2022-11-05T16:24:00.112Z,4.70
2022-11-05T16:29:38.130Z,4.37
2022-11-05T16:32:30.674Z,4.27
2022-11-05T16:35:07.100Z,3.80
2022-11-05T16:37:41.013Z,4.25
2022-11-05T16:40:30.301Z,3.40
2022-11-05T16:43:29.271Z,3.67
2022-11-05T16:46:01.613Z,3.90
2022-11-05T16:48:32.952Z,3.27
2022-11-05T16:51:04.895Z,3.80
2022-11-05T16:53:36.345Z,4.53
2022-11-05T16:56:14.758Z,4.40
2022-11-05T16:58:48.488Z,4.90
2022-11-05T17:01:21.969Z,4.33
2022-11-05T17:03:53.511Z,5.87
2022-11-05T17:06:24.758Z,4.70
2022-11-05T17:08:56.044Z,5.37
2022-11-05T17:11:27.428Z,5.20
2022-11-05T17:13:58.751Z,5.80
2022-11-05T17:16:30.258Z,5.43
2022-11-05T17:19:01.718Z,5.80
2022-11-05T17:21:32.993Z,6.33
2022-11-05T17:24:04.720Z,5.37
2022-11-05T17:26:36.165Z,6.53
2022-11-05T17:29:07.512Z,16.17
2022-11-05T17:31:40.413Z,17.97
2022-11-05T17:34:11.779Z,7.20
2022-11-05T17:36:43.136Z,8.80
2022-11-05T17:39:14.484Z,5.90
2022-11-05T17:41:46.097Z,6.50
2022-11-05T17:44:17.797Z,6.27
2022-11-05T17:46:49.718Z,5.57
2022-11-05T17:49:20.992Z,7.00
2022-11-05T17:51:52.331Z,8.50
2022-11-05T17:54:23.767Z,7.10
2022-11-05T17:56:55.107Z,8.27
2022-11-05T17:59:26.393Z,7.00
2022-11-05T18:01:58.423Z,6.53
2022-11-05T18:04:29.810Z,6.43
2022-11-05T18:07:02.913Z,6.50
2022-11-05T18:09:34.240Z,5.93
2022-11-05T18:12:05.820Z,5.87
2022-11-05T18:14:37.310Z,6.23
2022-11-05T18:17:08.741Z,6.17
2022-11-05T18:19:40.180Z,5.93
2022-11-05T18:22:11.510Z,6.20
2022-11-05T18:24:42.883Z,5.63
2022-11-05T18:27:14.284Z,6.40
2022-11-05T18:29:46.195Z,6.73
2022-11-05T18:32:17.594Z,6.37
2022-11-05T18:34:48.986Z,6.17
2022-11-05T18:37:20.408Z,6.60
2022-11-05T18:39:52.867Z,6.27
2022-11-05T18:42:25.265Z,7.33
2022-11-05T18:44:56.691Z,6.67
2022-11-05T18:47:28.372Z,6.10
2022-11-05T18:50:00.540Z,7.20
2022-11-05T18:52:32.736Z,6.13
2022-11-05T18:55:04.677Z,6.50
2022-11-05T18:57:36.187Z,6.33
2022-11-05T19:00:08.323Z,6.07
2022-11-05T19:02:40.805Z,5.80
2022-11-05T19:05:28.539Z,6.17
2022-11-05T19:08:00.577Z,6.43
2022-11-05T19:10:31.911Z,6.17
2022-11-05T19:13:03.267Z,6.67
2022-11-05T19:15:34.609Z,6.07
2022-11-05T19:18:06.010Z,7.13
2022-11-05T19:20:38.673Z,6.47
2022-11-05T19:23:09.948Z,7.23
2022-11-05T19:25:41.258Z,7.20
2022-11-05T19:28:12.869Z,6.97
2022-11-05T19:30:45.275Z,6.60
2022-11-05T19:33:16.613Z,6.90
2022-11-05T19:35:47.958Z,6.33
2022-11-05T19:38:19.347Z,6.63
2022-11-05T19:40:50.687Z,6.33
2022-11-05T19:43:22.010Z,6.60
2022-11-05T19:45:53.383Z,7.37
2022-11-05T19:48:25.341Z,7.10
2022-11-05T19:50:56.891Z,6.83
2022-11-05T19:53:28.217Z,6.63
2022-11-05T19:55:59.623Z,7.47
2022-11-05T19:58:30.891Z,6.50
2022-11-05T20:01:02.653Z,7.90
2022-11-05T20:03:34.161Z,7.83
2022-11-05T20:06:11.143Z,6.90
2022-11-05T20:09:07.225Z,7.10
2022-11-05T20:11:39.817Z,6.47
2022-11-05T20:14:11.189Z,6.20
2022-11-05T20:16:44.826Z,6.47
2022-11-05T20:19:19.355Z,6.37
2022-11-05T20:21:50.818Z,6.33
2022-11-05T20:24:25.242Z,6.37
2022-11-05T20:26:57.371Z,6.97
2022-11-05T20:29:35.070Z,6.53
2022-11-05T20:32:07.536Z,6.30
2022-11-05T20:34:38.904Z,6.87
2022-11-05T20:37:10.189Z,5.57
2022-11-05T20:39:41.532Z,5.80
2022-11-05T20:42:13.108Z,6.33
2022-11-05T20:44:44.459Z,6.07
2022-11-05T20:47:15.906Z,6.53
2022-11-05T20:49:47.178Z,5.87
2022-11-05T20:52:18.471Z,5.13
2022-11-05T20:54:49.733Z,5.47
2022-11-05T20:57:21.092Z,5.03
2022-11-05T20:59:52.352Z,5.90
2022-11-05T21:02:23.761Z,5.67
2022-11-05T21:04:55.098Z,5.47
2022-11-05T21:07:26.392Z,5.60
2022-11-05T21:09:57.779Z,6.30
2022-11-05T21:12:29.353Z,5.07
2022-11-05T21:15:00.683Z,5.77
2022-11-05T21:17:31.993Z,6.53
2022-11-05T21:20:04.455Z,5.93
2022-11-05T21:22:35.834Z,6.03
2022-11-05T21:25:07.879Z,5.53
2022-11-05T21:27:43.424Z,5.70
2022-11-05T21:30:15.140Z,5.47
2022-11-05T21:32:46.532Z,4.73
2022-11-05T21:35:17.864Z,5.77
2022-11-05T21:37:49.252Z,6.17
2022-11-05T21:40:20.584Z,4.80
2022-11-05T21:42:51.848Z,4.90
2022-11-05T21:45:23.173Z,5.57
2022-11-05T21:47:54.512Z,5.50
2022-11-05T21:50:44.953Z,4.87
2022-11-05T21:53:35.998Z,4.07
2022-11-05T21:56:45.407Z,4.63
2022-11-05T21:59:38.869Z,4.90
2022-11-05T22:02:13.210Z,4.53
2022-11-05T22:04:46.922Z,4.07
2022-11-05T22:07:21.652Z,3.97
2022-11-05T22:09:53.309Z,3.63
2022-11-05T22:12:25.326Z,3.97
2022-11-05T22:14:57.094Z,3.73
2022-11-05T22:17:28.942Z,3.83
2022-11-05T22:20:00.255Z,3.60
2022-11-05T22:22:32.025Z,3.90
2022-11-05T22:25:04.297Z,3.73
2022-11-05T22:27:35.567Z,3.63
2022-11-05T22:30:07.226Z,3.13
2022-11-05T22:32:38.848Z,4.20
2022-11-05T22:35:10.406Z,3.20
2022-11-05T22:37:41.716Z,3.10
2022-11-05T22:40:13.043Z,3.60
2022-11-05T22:42:44.403Z,3.47
2022-11-05T22:45:15.822Z,3.40
2022-11-05T22:47:47.143Z,2.70
2022-11-05T22:50:18.471Z,3.57
2022-11-05T22:52:49.745Z,3.00
2022-11-05T22:55:21.095Z,3.03
2022-11-05T22:57:52.481Z,3.73
2022-11-05T23:00:37.795Z,3.33
2022-11-05T23:03:09.240Z,2.73
2022-11-05T23:05:40.605Z,3.37
2022-11-05T23:08:30.350Z,3.53
2022-11-05T23:11:20.115Z,2.93
2022-11-05T23:13:51.419Z,2.73
2022-11-05T23:16:41.496Z,3.37
2022-11-05T23:19:32.131Z,3.07
2022-11-05T23:22:22.827Z,3.30
2022-11-05T23:24:54.173Z,2.70
2022-11-05T23:27:28.887Z,2.63
2022-11-05T23:30:01.773Z,2.40
2022-11-05T23:32:33.714Z,3.33
2022-11-05T23:35:05.404Z,2.83
2022-11-05T23:37:55.491Z,2.83
2022-11-05T23:40:29.926Z,2.83
2022-11-05T23:43:19.697Z,2.60
2022-11-05T23:46:09.400Z,2.10
2022-11-05T23:48:40.770Z,2.80
2022-11-05T23:51:12.359Z,2.67
2022-11-05T23:53:43.802Z,2.60
2022-11-05T23:56:15.644Z,2.83
2022-11-05T23:58:46.943Z,3.40
